sensor_id;sensor_type;location;lat;lon;timestamp;P1;durP1;ratioP1;P2;durP2;ratioP2
47103;SDS011;32853;52.164;5.400;2022-08-18T00:01:02;13.43;;;10.07;;
47103;SDS011;32853;52.164;5.400;2022-08-18T00:03:27;12.13;;;9.95;;
47103;SDS011;32853;52.164;5.400;2022-08-18T00:05:56;15.10;;;9.95;;
47103;SDS011;32853;52.164;5.400;2022-08-18T00:08:30;11.68;;;10.20;;
47103;SDS011;32853;52.164;5.400;2022-08-18T00:10:56;18.15;;;10.43;;
47103;SDS011;32853;52.164;5.400;2022-08-18T00:13:22;15.60;;;10.98;;
47103;SDS011;32853;52.164;5.400;2022-08-18T00:15:48;12.35;;;10.10;;
47103;SDS011;32853;52.164;5.400;2022-08-18T00:18:14;14.10;;;10.48;;
47103;SDS011;32853;52.164;5.400;2022-08-18T00:20:51;13.40;;;10.10;;
47103;SDS011;32853;52.164;5.400;2022-08-18T00:23:16;13.65;;;10.10;;
47103;SDS011;32853;52.164;5.400;2022-08-18T00:25:42;12.23;;;9.52;;
47103;SDS011;32853;52.164;5.400;2022-08-18T00:28:09;13.15;;;9.05;;
47103;SDS011;32853;52.164;5.400;2022-08-18T00:30:36;12.13;;;9.05;;
47103;SDS011;32853;52.164;5.400;2022-08-18T00:33:01;14.63;;;10.30;;
47103;SDS011;32853;52.164;5.400;2022-08-18T00:35:35;13.30;;;10.37;;
47103;SDS011;32853;52.164;5.400;2022-08-18T00:38:03;14.02;;;9.18;;
47103;SDS011;32853;52.164;5.400;2022-08-18T00:40:43;13.20;;;9.15;;
47103;SDS011;32853;52.164;5.400;2022-08-18T00:43:14;13.43;;;9.75;;
47103;SDS011;32853;52.164;5.400;2022-08-18T00:45:43;10.60;;;9.32;;
47103;SDS011;32853;52.164;5.400;2022-08-18T00:48:10;14.02;;;9.55;;
47103;SDS011;32853;52.164;5.400;2022-08-18T00:51:00;13.07;;;10.07;;
47103;SDS011;32853;52.164;5.400;2022-08-18T00:53:28;14.45;;;10.70;;
47103;SDS011;32853;52.164;5.400;2022-08-18T00:55:59;11.00;;;8.87;;
47103;SDS011;32853;52.164;5.400;2022-08-18T00:58:31;11.15;;;8.85;;
47103;SDS011;32853;52.164;5.400;2022-08-18T01:01:05;13.80;;;9.40;;
47103;SDS011;32853;52.164;5.400;2022-08-18T01:03:35;11.32;;;8.68;;
47103;SDS011;32853;52.164;5.400;2022-08-18T01:06:17;11.43;;;8.77;;
47103;SDS011;32853;52.164;5.400;2022-08-18T01:08:59;11.13;;;9.10;;
47103;SDS011;32853;52.164;5.400;2022-08-18T01:11:25;12.23;;;9.97;;
47103;SDS011;32853;52.164;5.400;2022-08-18T01:13:54;12.13;;;8.57;;
47103;SDS011;32853;52.164;5.400;2022-08-18T01:16:20;11.07;;;9.37;;
47103;SDS011;32853;52.164;5.400;2022-08-18T01:19:04;11.77;;;9.63;;
47103;SDS011;32853;52.164;5.400;2022-08-18T01:21:50;13.93;;;9.35;;
47103;SDS011;32853;52.164;5.400;2022-08-18T01:24:22;10.95;;;8.80;;
47103;SDS011;32853;52.164;5.400;2022-08-18T01:27:15;11.52;;;9.45;;
47103;SDS011;32853;52.164;5.400;2022-08-18T01:29:43;13.27;;;9.10;;
47103;SDS011;32853;52.164;5.400;2022-08-18T01:32:11;11.35;;;9.15;;
47103;SDS011;32853;52.164;5.400;2022-08-18T01:34:40;15.20;;;9.68;;
47103;SDS011;32853;52.164;5.400;2022-08-18T01:37:05;14.93;;;9.87;;
47103;SDS011;32853;52.164;5.400;2022-08-18T01:39:31;13.17;;;10.07;;
47103;SDS011;32853;52.164;5.400;2022-08-18T01:41:56;16.57;;;10.00;;
47103;SDS011;32853;52.164;5.400;2022-08-18T01:44:21;12.73;;;9.43;;
47103;SDS011;32853;52.164;5.400;2022-08-18T01:46:47;14.32;;;10.27;;
47103;SDS011;32853;52.164;5.400;2022-08-18T01:49:12;15.13;;;10.00;;
47103;SDS011;32853;52.164;5.400;2022-08-18T01:51:38;12.32;;;9.25;;
47103;SDS011;32853;52.164;5.400;2022-08-18T01:54:07;13.07;;;9.60;;
47103;SDS011;32853;52.164;5.400;2022-08-18T01:56:35;15.52;;;9.73;;
47103;SDS011;32853;52.164;5.400;2022-08-18T01:59:07;12.17;;;9.47;;
47103;SDS011;32853;52.164;5.400;2022-08-18T02:01:37;11.40;;;9.55;;
47103;SDS011;32853;52.164;5.400;2022-08-18T02:04:03;12.25;;;9.18;;
47103;SDS011;32853;52.164;5.400;2022-08-18T02:06:31;14.10;;;9.80;;
47103;SDS011;32853;52.164;5.400;2022-08-18T02:08:57;14.50;;;9.48;;
47103;SDS011;32853;52.164;5.400;2022-08-18T02:11:22;12.17;;;8.80;;
47103;SDS011;32853;52.164;5.400;2022-08-18T02:13:48;13.87;;;9.73;;
47103;SDS011;32853;52.164;5.400;2022-08-18T02:16:13;15.10;;;10.00;;
47103;SDS011;32853;52.164;5.400;2022-08-18T02:18:39;10.40;;;9.33;;
47103;SDS011;32853;52.164;5.400;2022-08-18T02:21:08;12.73;;;8.93;;
47103;SDS011;32853;52.164;5.400;2022-08-18T02:23:39;11.15;;;9.35;;
47103;SDS011;32853;52.164;5.400;2022-08-18T02:26:08;15.40;;;9.77;;
47103;SDS011;32853;52.164;5.400;2022-08-18T02:28:36;15.32;;;9.93;;
47103;SDS011;32853;52.164;5.400;2022-08-18T02:33:46;16.38;;;10.05;;
47103;SDS011;32853;52.164;5.400;2022-08-18T02:36:12;13.43;;;9.87;;
47103;SDS011;32853;52.164;5.400;2022-08-18T02:38:39;9.77;;;8.18;;
47103;SDS011;32853;52.164;5.400;2022-08-18T02:41:06;12.77;;;8.93;;
47103;SDS011;32853;52.164;5.400;2022-08-18T02:43:33;12.57;;;9.53;;
47103;SDS011;32853;52.164;5.400;2022-08-18T02:46:05;13.07;;;9.65;;
47103;SDS011;32853;52.164;5.400;2022-08-18T02:48:31;13.43;;;8.93;;
47103;SDS011;32853;52.164;5.400;2022-08-18T02:51:09;12.02;;;8.30;;
47103;SDS011;32853;52.164;5.400;2022-08-18T02:53:39;12.45;;;9.27;;
47103;SDS011;32853;52.164;5.400;2022-08-18T02:56:06;17.05;;;9.40;;
47103;SDS011;32853;52.164;5.400;2022-08-18T02:58:51;14.45;;;9.10;;
47103;SDS011;32853;52.164;5.400;2022-08-18T03:01:22;13.52;;;9.07;;
47103;SDS011;32853;52.164;5.400;2022-08-18T03:03:50;13.52;;;8.48;;
47103;SDS011;32853;52.164;5.400;2022-08-18T03:06:17;10.80;;;8.40;;
47103;SDS011;32853;52.164;5.400;2022-08-18T03:08:44;11.50;;;7.93;;
47103;SDS011;32853;52.164;5.400;2022-08-18T03:11:13;16.15;;;8.70;;
47103;SDS011;32853;52.164;5.400;2022-08-18T03:13:40;13.88;;;8.20;;
47103;SDS011;32853;52.164;5.400;2022-08-18T03:16:05;13.17;;;8.43;;
47103;SDS011;32853;52.164;5.400;2022-08-18T03:18:32;15.70;;;7.70;;
47103;SDS011;32853;52.164;5.400;2022-08-18T03:21:03;9.53;;;7.20;;
47103;SDS011;32853;52.164;5.400;2022-08-18T03:23:30;12.40;;;7.82;;
47103;SDS011;32853;52.164;5.400;2022-08-18T03:25:55;9.10;;;7.70;;
47103;SDS011;32853;52.164;5.400;2022-08-18T03:28:28;11.85;;;7.45;;
47103;SDS011;32853;52.164;5.400;2022-08-18T03:30:54;13.52;;;7.90;;
47103;SDS011;32853;52.164;5.400;2022-08-18T03:33:20;9.80;;;7.35;;
47103;SDS011;32853;52.164;5.400;2022-08-18T03:35:54;12.03;;;7.77;;
47103;SDS011;32853;52.164;5.400;2022-08-18T03:38:19;9.37;;;7.57;;
47103;SDS011;32853;52.164;5.400;2022-08-18T03:40:51;10.33;;;7.47;;
47103;SDS011;32853;52.164;5.400;2022-08-18T03:43:16;9.93;;;7.75;;
47103;SDS011;32853;52.164;5.400;2022-08-18T03:45:42;10.70;;;7.43;;
47103;SDS011;32853;52.164;5.400;2022-08-18T03:48:17;8.63;;;7.57;;
47103;SDS011;32853;52.164;5.400;2022-08-18T03:50:47;9.93;;;7.03;;
47103;SDS011;32853;52.164;5.400;2022-08-18T03:53:16;8.93;;;7.25;;
47103;SDS011;32853;52.164;5.400;2022-08-18T03:55:51;12.18;;;8.30;;
47103;SDS011;32853;52.164;5.400;2022-08-18T03:58:16;10.55;;;8.20;;
47103;SDS011;32853;52.164;5.400;2022-08-18T04:00:42;11.37;;;8.37;;
47103;SDS011;32853;52.164;5.400;2022-08-18T04:03:11;9.07;;;7.97;;
47103;SDS011;32853;52.164;5.400;2022-08-18T04:05:38;11.95;;;8.02;;
47103;SDS011;32853;52.164;5.400;2022-08-18T04:08:05;10.45;;;8.32;;
47103;SDS011;32853;52.164;5.400;2022-08-18T04:10:37;11.20;;;7.38;;
47103;SDS011;32853;52.164;5.400;2022-08-18T04:13:07;13.68;;;8.38;;
47103;SDS011;32853;52.164;5.400;2022-08-18T04:15:32;9.75;;;8.68;;
47103;SDS011;32853;52.164;5.400;2022-08-18T04:18:01;10.27;;;9.17;;
47103;SDS011;32853;52.164;5.400;2022-08-18T04:20:34;12.00;;;9.10;;
47103;SDS011;32853;52.164;5.400;2022-08-18T04:22:59;15.77;;;10.45;;
47103;SDS011;32853;52.164;5.400;2022-08-18T04:25:25;12.52;;;10.02;;
47103;SDS011;32853;52.164;5.400;2022-08-18T04:27:52;14.32;;;9.95;;
47103;SDS011;32853;52.164;5.400;2022-08-18T04:30:27;13.65;;;10.02;;
47103;SDS011;32853;52.164;5.400;2022-08-18T04:33:03;13.43;;;10.15;;
47103;SDS011;32853;52.164;5.400;2022-08-18T04:35:30;12.40;;;10.35;;
47103;SDS011;32853;52.164;5.400;2022-08-18T04:40:25;15.55;;;9.57;;
47103;SDS011;32853;52.164;5.400;2022-08-18T04:42:51;20.23;;;9.93;;
47103;SDS011;32853;52.164;5.400;2022-08-18T04:45:16;13.20;;;9.17;;
47103;SDS011;32853;52.164;5.400;2022-08-18T04:47:42;14.87;;;9.67;;
47103;SDS011;32853;52.164;5.400;2022-08-18T04:50:11;15.25;;;9.73;;
47103;SDS011;32853;52.164;5.400;2022-08-18T04:52:44;12.60;;;8.97;;
47103;SDS011;32853;52.164;5.400;2022-08-18T04:55:27;11.35;;;9.35;;
47103;SDS011;32853;52.164;5.400;2022-08-18T04:57:57;11.27;;;9.13;;
47103;SDS011;32853;52.164;5.400;2022-08-18T05:00:23;11.00;;;9.00;;
47103;SDS011;32853;52.164;5.400;2022-08-18T05:03:04;12.30;;;10.07;;
47103;SDS011;32853;52.164;5.400;2022-08-18T05:05:30;12.05;;;9.88;;
47103;SDS011;32853;52.164;5.400;2022-08-18T05:07:57;14.43;;;9.80;;
47103;SDS011;32853;52.164;5.400;2022-08-18T05:10:22;12.07;;;9.30;;
47103;SDS011;32853;52.164;5.400;2022-08-18T05:12:47;12.30;;;9.30;;
47103;SDS011;32853;52.164;5.400;2022-08-18T05:15:13;12.93;;;10.02;;
47103;SDS011;32853;52.164;5.400;2022-08-18T05:17:38;14.73;;;9.67;;
47103;SDS011;32853;52.164;5.400;2022-08-18T05:20:06;13.17;;;9.43;;
47103;SDS011;32853;52.164;5.400;2022-08-18T05:25:15;15.77;;;9.63;;
47103;SDS011;32853;52.164;5.400;2022-08-18T05:27:41;14.40;;;9.17;;
47103;SDS011;32853;52.164;5.400;2022-08-18T05:30:16;13.20;;;9.43;;
47103;SDS011;32853;52.164;5.400;2022-08-18T05:32:42;11.67;;;9.57;;
47103;SDS011;32853;52.164;5.400;2022-08-18T05:35:10;16.13;;;9.85;;
47103;SDS011;32853;52.164;5.400;2022-08-18T05:37:51;12.90;;;9.27;;
47103;SDS011;32853;52.164;5.400;2022-08-18T05:40:22;16.83;;;9.60;;
47103;SDS011;32853;52.164;5.400;2022-08-18T05:42:52;13.63;;;9.00;;
47103;SDS011;32853;52.164;5.400;2022-08-18T05:45:26;12.90;;;9.02;;
47103;SDS011;32853;52.164;5.400;2022-08-18T05:47:56;13.13;;;8.65;;
47103;SDS011;32853;52.164;5.400;2022-08-18T05:50:23;14.07;;;8.35;;
47103;SDS011;32853;52.164;5.400;2022-08-18T05:52:55;12.98;;;9.38;;
47103;SDS011;32853;52.164;5.400;2022-08-18T05:55:28;12.98;;;8.82;;
47103;SDS011;32853;52.164;5.400;2022-08-18T05:58:17;11.32;;;9.35;;
47103;SDS011;32853;52.164;5.400;2022-08-18T06:00:55;13.38;;;8.63;;
47103;SDS011;32853;52.164;5.400;2022-08-18T06:03:44;11.90;;;9.65;;
47103;SDS011;32853;52.164;5.400;2022-08-18T06:06:24;12.45;;;9.40;;
47103;SDS011;32853;52.164;5.400;2022-08-18T06:09:12;15.32;;;9.73;;
47103;SDS011;32853;52.164;5.400;2022-08-18T06:11:43;11.70;;;8.40;;
47103;SDS011;32853;52.164;5.400;2022-08-18T06:14:09;11.60;;;8.03;;
47103;SDS011;32853;52.164;5.400;2022-08-18T06:16:57;14.48;;;8.68;;
47103;SDS011;32853;52.164;5.400;2022-08-18T06:28:08;10.05;;;7.82;;
47103;SDS011;32853;52.164;5.400;2022-08-18T06:30:53;11.30;;;8.15;;
47103;SDS011;32853;52.164;5.400;2022-08-18T06:33:42;13.13;;;7.90;;
47103;SDS011;32853;52.164;5.400;2022-08-18T06:39:20;10.88;;;7.78;;
47103;SDS011;32853;52.164;5.400;2022-08-18T06:42:00;12.15;;;7.55;;
47103;SDS011;32853;52.164;5.400;2022-08-18T06:44:32;11.50;;;8.00;;
47103;SDS011;32853;52.164;5.400;2022-08-18T06:52:29;13.38;;;7.07;;
47103;SDS011;32853;52.164;5.400;2022-08-18T06:57:56;12.45;;;7.20;;
47103;SDS011;32853;52.164;5.400;2022-08-18T07:00:34;13.43;;;6.40;;
47103;SDS011;32853;52.164;5.400;2022-08-18T07:03:11;7.90;;;5.80;;
47103;SDS011;32853;52.164;5.400;2022-08-18T07:05:54;8.18;;;6.10;;
47103;SDS011;32853;52.164;5.400;2022-08-18T07:08:37;8.40;;;5.47;;
47103;SDS011;32853;52.164;5.400;2022-08-18T07:11:24;9.10;;;4.97;;
47103;SDS011;32853;52.164;5.400;2022-08-18T07:13:57;8.23;;;5.47;;
47103;SDS011;32853;52.164;5.400;2022-08-18T07:16:37;8.45;;;5.63;;
47103;SDS011;32853;52.164;5.400;2022-08-18T07:19:07;9.23;;;5.28;;
47103;SDS011;32853;52.164;5.400;2022-08-18T07:21:35;11.35;;;5.47;;
47103;SDS011;32853;52.164;5.400;2022-08-18T07:24:20;7.03;;;4.53;;
47103;SDS011;32853;52.164;5.400;2022-08-18T07:27:12;9.60;;;4.67;;
47103;SDS011;32853;52.164;5.400;2022-08-18T07:29:58;7.65;;;4.43;;
47103;SDS011;32853;52.164;5.400;2022-08-18T07:32:25;10.55;;;5.32;;
47103;SDS011;32853;52.164;5.400;2022-08-18T07:34:58;8.75;;;4.32;;
47103;SDS011;32853;52.164;5.400;2022-08-18T07:40:28;6.63;;;5.53;;
47103;SDS011;32853;52.164;5.400;2022-08-18T07:43:00;7.50;;;4.80;;
47103;SDS011;32853;52.164;5.400;2022-08-18T07:45:31;7.37;;;4.20;;
47103;SDS011;32853;52.164;5.400;2022-08-18T07:48:20;6.70;;;4.50;;
47103;SDS011;32853;52.164;5.400;2022-08-18T07:54:06;6.50;;;4.25;;
47103;SDS011;32853;52.164;5.400;2022-08-18T08:07:05;4.70;;;2.95;;
47103;SDS011;32853;52.164;5.400;2022-08-18T08:12:45;7.67;;;3.60;;
47103;SDS011;32853;52.164;5.400;2022-08-18T08:18:06;5.07;;;2.40;;
47103;SDS011;32853;52.164;5.400;2022-08-18T08:26:57;4.90;;;2.90;;
47103;SDS011;32853;52.164;5.400;2022-08-18T08:32:43;5.05;;;2.58;;
47103;SDS011;32853;52.164;5.400;2022-08-18T08:35:14;6.90;;;3.20;;
47103;SDS011;32853;52.164;5.400;2022-08-18T08:38:44;5.47;;;2.60;;
47103;SDS011;32853;52.164;5.400;2022-08-18T08:40:50;6.90;;;3.33;;
47103;SDS011;32853;52.164;5.400;2022-08-18T08:43:39;5.53;;;2.60;;
47103;SDS011;32853;52.164;5.400;2022-08-18T08:46:27;4.90;;;2.40;;
47103;SDS011;32853;52.164;5.400;2022-08-18T08:49:01;5.03;;;2.42;;
47103;SDS011;32853;52.164;5.400;2022-08-18T08:51:37;3.70;;;2.08;;
47103;SDS011;32853;52.164;5.400;2022-08-18T08:54:28;3.90;;;2.20;;
47103;SDS011;32853;52.164;5.400;2022-08-18T08:57:03;6.35;;;2.33;;
47103;SDS011;32853;52.164;5.400;2022-08-18T08:59:30;4.85;;;2.20;;
47103;SDS011;32853;52.164;5.400;2022-08-18T09:12:45;4.28;;;2.22;;
47103;SDS011;32853;52.164;5.400;2022-08-18T09:15:28;4.68;;;2.10;;
47103;SDS011;32853;52.164;5.400;2022-08-18T09:18:25;3.28;;;2.00;;
47103;SDS011;32853;52.164;5.400;2022-08-18T09:21:42;4.38;;;2.10;;
47103;SDS011;32853;52.164;5.400;2022-08-18T09:29:26;4.38;;;2.05;;
47103;SDS011;32853;52.164;5.400;2022-08-18T09:35:06;6.32;;;2.20;;
47103;SDS011;32853;52.164;5.400;2022-08-18T09:37:43;4.45;;;2.13;;
47103;SDS011;32853;52.164;5.400;2022-08-18T09:40:55;6.80;;;2.60;;
47103;SDS011;32853;52.164;5.400;2022-08-18T09:51:55;3.67;;;2.10;;
47103;SDS011;32853;52.164;5.400;2022-08-18T09:54:26;5.40;;;2.00;;
47103;SDS011;32853;52.164;5.400;2022-08-18T09:57:17;6.65;;;2.40;;
47103;SDS011;32853;52.164;5.400;2022-08-18T10:02:09;4.03;;;2.00;;
47103;SDS011;32853;52.164;5.400;2022-08-18T10:13:24;3.95;;;1.77;;
47103;SDS011;32853;52.164;5.400;2022-08-18T10:21:18;3.90;;;2.23;;
47103;SDS011;32853;52.164;5.400;2022-08-18T10:27:02;3.78;;;2.20;;
47103;SDS011;32853;52.164;5.400;2022-08-18T10:29:08;3.22;;;1.70;;
47103;SDS011;32853;52.164;5.400;2022-08-18T10:42:37;3.67;;;1.60;;
47103;SDS011;32853;52.164;5.400;2022-08-18T10:45:27;2.88;;;1.20;;
47103;SDS011;32853;52.164;5.400;2022-08-18T10:47:58;3.30;;;1.55;;
47103;SDS011;32853;52.164;5.400;2022-08-18T10:50:37;4.27;;;1.50;;
47103;SDS011;32853;52.164;5.400;2022-08-18T10:53:11;3.08;;;1.42;;
47103;SDS011;32853;52.164;5.400;2022-08-18T11:01:08;3.03;;;1.58;;
47103;SDS011;32853;52.164;5.400;2022-08-18T11:06:27;3.65;;;1.77;;
47103;SDS011;32853;52.164;5.400;2022-08-18T11:08:58;2.45;;;1.33;;
47103;SDS011;32853;52.164;5.400;2022-08-18T11:11:43;5.00;;;1.70;;
47103;SDS011;32853;52.164;5.400;2022-08-18T11:14:35;5.22;;;1.67;;
47103;SDS011;32853;52.164;5.400;2022-08-18T11:17:27;4.03;;;1.67;;
47103;SDS011;32853;52.164;5.400;2022-08-18T11:20:05;4.97;;;1.45;;
47103;SDS011;32853;52.164;5.400;2022-08-18T11:22:34;2.10;;;1.20;;
47103;SDS011;32853;52.164;5.400;2022-08-18T11:25:16;4.38;;;1.73;;
47103;SDS011;32853;52.164;5.400;2022-08-18T11:27:54;4.32;;;1.58;;
47103;SDS011;32853;52.164;5.400;2022-08-18T11:30:27;4.22;;;1.50;;
47103;SDS011;32853;52.164;5.400;2022-08-18T11:32:56;4.07;;;1.30;;
47103;SDS011;32853;52.164;5.400;2022-08-18T11:35:29;3.57;;;1.23;;
47103;SDS011;32853;52.164;5.400;2022-08-18T11:38:01;3.88;;;1.40;;
47103;SDS011;32853;52.164;5.400;2022-08-18T11:40:37;2.87;;;1.40;;
47103;SDS011;32853;52.164;5.400;2022-08-18T11:45:54;7.68;;;1.45;;
47103;SDS011;32853;52.164;5.400;2022-08-18T12:01:04;3.10;;;1.13;;
47103;SDS011;32853;52.164;5.400;2022-08-18T12:06:18;3.17;;;1.30;;
47103;SDS011;32853;52.164;5.400;2022-08-18T12:08:53;1.70;;;1.30;;
47103;SDS011;32853;52.164;5.400;2022-08-18T12:11:29;1.70;;;1.00;;
47103;SDS011;32853;52.164;5.400;2022-08-18T12:14:04;5.63;;;2.10;;
47103;SDS011;32853;52.164;5.400;2022-08-18T12:19:03;4.80;;;1.50;;
47103;SDS011;32853;52.164;5.400;2022-08-18T12:21:30;3.97;;;1.20;;
47103;SDS011;32853;52.164;5.400;2022-08-18T12:23:56;2.67;;;1.25;;
47103;SDS011;32853;52.164;5.400;2022-08-18T12:26:26;4.80;;;1.20;;
47103;SDS011;32853;52.164;5.400;2022-08-18T12:28:54;3.25;;;1.30;;
47103;SDS011;32853;52.164;5.400;2022-08-18T12:31:19;1.85;;;1.20;;
47103;SDS011;32853;52.164;5.400;2022-08-18T12:33:45;2.07;;;1.00;;
47103;SDS011;32853;52.164;5.400;2022-08-18T12:36:12;1.77;;;0.90;;
47103;SDS011;32853;52.164;5.400;2022-08-18T12:38:38;2.53;;;0.80;;
47103;SDS011;32853;52.164;5.400;2022-08-18T12:41:07;4.88;;;1.25;;
47103;SDS011;32853;52.164;5.400;2022-08-18T12:43:35;3.33;;;0.93;;
47103;SDS011;32853;52.164;5.400;2022-08-18T12:46:01;3.67;;;0.93;;
47103;SDS011;32853;52.164;5.400;2022-08-18T12:48:27;1.83;;;0.87;;
47103;SDS011;32853;52.164;5.400;2022-08-18T12:50:55;2.63;;;0.98;;
47103;SDS011;32853;52.164;5.400;2022-08-18T12:53:23;4.22;;;1.00;;
47103;SDS011;32853;52.164;5.400;2022-08-18T12:55:50;2.17;;;1.00;;
47103;SDS011;32853;52.164;5.400;2022-08-18T12:58:15;3.73;;;0.90;;
47103;SDS011;32853;52.164;5.400;2022-08-18T13:00:40;2.20;;;0.80;;
47103;SDS011;32853;52.164;5.400;2022-08-18T13:03:06;3.27;;;0.90;;
47103;SDS011;32853;52.164;5.400;2022-08-18T13:05:32;1.45;;;0.93;;
47103;SDS011;32853;52.164;5.400;2022-08-18T13:08:00;2.47;;;1.08;;
47103;SDS011;32853;52.164;5.400;2022-08-18T13:10:27;3.20;;;1.08;;
47103;SDS011;32853;52.164;5.400;2022-08-18T13:12:55;2.88;;;0.95;;
47103;SDS011;32853;52.164;5.400;2022-08-18T13:15:20;1.98;;;0.90;;
47103;SDS011;32853;52.164;5.400;2022-08-18T13:17:47;1.90;;;0.70;;
47103;SDS011;32853;52.164;5.400;2022-08-18T13:20:16;0.90;;;0.60;;
47103;SDS011;32853;52.164;5.400;2022-08-18T13:22:42;3.95;;;1.63;;
47103;SDS011;32853;52.164;5.400;2022-08-18T13:25:09;4.00;;;1.70;;
47103;SDS011;32853;52.164;5.400;2022-08-18T13:27:36;3.90;;;1.30;;
47103;SDS011;32853;52.164;5.400;2022-08-18T13:30:07;2.70;;;1.20;;
47103;SDS011;32853;52.164;5.400;2022-08-18T13:32:36;3.33;;;1.30;;
47103;SDS011;32853;52.164;5.400;2022-08-18T13:35:02;3.97;;;1.15;;
47103;SDS011;32853;52.164;5.400;2022-08-18T13:37:29;5.85;;;1.15;;
47103;SDS011;32853;52.164;5.400;2022-08-18T13:39:56;1.90;;;0.90;;
47103;SDS011;32853;52.164;5.400;2022-08-18T13:42:22;2.30;;;1.10;;
47103;SDS011;32853;52.164;5.400;2022-08-18T13:44:47;2.77;;;1.10;;
47103;SDS011;32853;52.164;5.400;2022-08-18T13:47:13;2.70;;;0.95;;
47103;SDS011;32853;52.164;5.400;2022-08-18T13:49:39;3.07;;;1.10;;
47103;SDS011;32853;52.164;5.400;2022-08-18T13:52:04;3.23;;;1.07;;
47103;SDS011;32853;52.164;5.400;2022-08-18T13:54:31;3.63;;;0.80;;
47103;SDS011;32853;52.164;5.400;2022-08-18T13:56:58;1.77;;;0.75;;
47103;SDS011;32853;52.164;5.400;2022-08-18T13:59:25;2.20;;;1.23;;
47103;SDS011;32853;52.164;5.400;2022-08-18T14:01:58;2.25;;;0.98;;
47103;SDS011;32853;52.164;5.400;2022-08-18T14:04:26;5.10;;;1.40;;
47103;SDS011;32853;52.164;5.400;2022-08-18T14:06:54;1.77;;;0.90;;
47103;SDS011;32853;52.164;5.400;2022-08-18T14:09:19;2.10;;;1.10;;
47103;SDS011;32853;52.164;5.400;2022-08-18T14:11:45;3.00;;;1.10;;
47103;SDS011;32853;52.164;5.400;2022-08-18T14:14:11;3.65;;;1.30;;
47103;SDS011;32853;52.164;5.400;2022-08-18T14:16:37;2.63;;;1.25;;
47103;SDS011;32853;52.164;5.400;2022-08-18T14:19:02;4.38;;;1.30;;
47103;SDS011;32853;52.164;5.400;2022-08-18T14:21:50;1.90;;;1.10;;
47103;SDS011;32853;52.164;5.400;2022-08-18T14:24:36;5.90;;;1.70;;
47103;SDS011;32853;52.164;5.400;2022-08-18T14:27:30;2.90;;;1.10;;
47103;SDS011;32853;52.164;5.400;2022-08-18T14:30:06;2.40;;;0.93;;
47103;SDS011;32853;52.164;5.400;2022-08-18T14:32:33;4.38;;;1.80;;
47103;SDS011;32853;52.164;5.400;2022-08-18T14:35:02;3.80;;;1.25;;
47103;SDS011;32853;52.164;5.400;2022-08-18T14:37:34;3.67;;;1.40;;
47103;SDS011;32853;52.164;5.400;2022-08-18T14:39:59;3.65;;;1.40;;
47103;SDS011;32853;52.164;5.400;2022-08-18T14:42:25;1.87;;;1.10;;
47103;SDS011;32853;52.164;5.400;2022-08-18T14:44:51;2.13;;;1.08;;
47103;SDS011;32853;52.164;5.400;2022-08-18T14:47:17;3.10;;;1.10;;
47103;SDS011;32853;52.164;5.400;2022-08-18T14:49:42;4.50;;;1.40;;
47103;SDS011;32853;52.164;5.400;2022-08-18T14:52:10;2.78;;;1.20;;
47103;SDS011;32853;52.164;5.400;2022-08-18T14:54:36;2.42;;;1.40;;
47103;SDS011;32853;52.164;5.400;2022-08-18T14:57:02;1.98;;;1.00;;
47103;SDS011;32853;52.164;5.400;2022-08-18T14:59:29;3.95;;;1.20;;
47103;SDS011;32853;52.164;5.400;2022-08-18T15:01:57;2.92;;;1.05;;
47103;SDS011;32853;52.164;5.400;2022-08-18T15:04:22;2.27;;;1.00;;
47103;SDS011;32853;52.164;5.400;2022-08-18T15:06:48;1.47;;;0.83;;
47103;SDS011;32853;52.164;5.400;2022-08-18T15:09:14;2.17;;;1.00;;
47103;SDS011;32853;52.164;5.400;2022-08-18T15:11:39;4.00;;;0.97;;
47103;SDS011;32853;52.164;5.400;2022-08-18T15:14:04;1.97;;;1.20;;
47103;SDS011;32853;52.164;5.400;2022-08-18T15:16:30;3.13;;;1.50;;
47103;SDS011;32853;52.164;5.400;2022-08-18T15:18:58;2.58;;;1.00;;
47103;SDS011;32853;52.164;5.400;2022-08-18T15:21:24;5.03;;;1.00;;
47103;SDS011;32853;52.164;5.400;2022-08-18T15:24:08;2.83;;;0.80;;
47103;SDS011;32853;52.164;5.400;2022-08-18T15:26:56;3.20;;;1.00;;
47103;SDS011;32853;52.164;5.400;2022-08-18T15:29:22;2.65;;;0.80;;
47103;SDS011;32853;52.164;5.400;2022-08-18T15:31:48;2.50;;;0.70;;
47103;SDS011;32853;52.164;5.400;2022-08-18T15:34:14;2.47;;;1.00;;
47103;SDS011;32853;52.164;5.400;2022-08-18T15:36:40;3.30;;;0.77;;
47103;SDS011;32853;52.164;5.400;2022-08-18T15:39:06;1.65;;;0.70;;
47103;SDS011;32853;52.164;5.400;2022-08-18T15:41:36;3.63;;;0.83;;
47103;SDS011;32853;52.164;5.400;2022-08-18T15:44:04;1.20;;;0.77;;
47103;SDS011;32853;52.164;5.400;2022-08-18T15:46:31;2.08;;;0.73;;
47103;SDS011;32853;52.164;5.400;2022-08-18T15:48:59;3.50;;;0.97;;
47103;SDS011;32853;52.164;5.400;2022-08-18T15:51:24;1.87;;;0.70;;
47103;SDS011;32853;52.164;5.400;2022-08-18T15:53:50;1.40;;;0.80;;
47103;SDS011;32853;52.164;5.400;2022-08-18T15:56:22;3.07;;;1.00;;
47103;SDS011;32853;52.164;5.400;2022-08-18T15:58:48;1.90;;;0.80;;
47103;SDS011;32853;52.164;5.400;2022-08-18T16:03:50;1.67;;;0.90;;
47103;SDS011;32853;52.164;5.400;2022-08-18T16:06:19;1.45;;;0.70;;
47103;SDS011;32853;52.164;5.400;2022-08-18T16:08:48;2.28;;;1.10;;
47103;SDS011;32853;52.164;5.400;2022-08-18T16:11:14;3.33;;;0.93;;
47103;SDS011;32853;52.164;5.400;2022-08-18T16:13:41;3.38;;;0.90;;
47103;SDS011;32853;52.164;5.400;2022-08-18T16:16:08;3.00;;;1.20;;
47103;SDS011;32853;52.164;5.400;2022-08-18T16:18:38;3.00;;;0.77;;
47103;SDS011;32853;52.164;5.400;2022-08-18T16:21:04;3.08;;;0.90;;
47103;SDS011;32853;52.164;5.400;2022-08-18T16:23:39;2.63;;;0.85;;
47103;SDS011;32853;52.164;5.400;2022-08-18T16:26:06;3.23;;;1.00;;
47103;SDS011;32853;52.164;5.400;2022-08-18T16:28:32;2.85;;;0.95;;
47103;SDS011;32853;52.164;5.400;2022-08-18T16:30:58;6.18;;;1.65;;
47103;SDS011;32853;52.164;5.400;2022-08-18T16:33:32;2.30;;;0.70;;
47103;SDS011;32853;52.164;5.400;2022-08-18T16:38:38;2.55;;;0.90;;
47103;SDS011;32853;52.164;5.400;2022-08-18T16:41:07;2.30;;;0.68;;
47103;SDS011;32853;52.164;5.400;2022-08-18T16:43:35;1.88;;;0.80;;
47103;SDS011;32853;52.164;5.400;2022-08-18T16:46:01;3.20;;;0.90;;
47103;SDS011;32853;52.164;5.400;2022-08-18T16:48:28;1.92;;;0.73;;
47103;SDS011;32853;52.164;5.400;2022-08-18T16:50:56;2.50;;;0.80;;
47103;SDS011;32853;52.164;5.400;2022-08-18T16:53:21;1.55;;;0.70;;
47103;SDS011;32853;52.164;5.400;2022-08-18T16:55:50;1.83;;;0.70;;
47103;SDS011;32853;52.164;5.400;2022-08-18T16:58:26;1.73;;;0.80;;
47103;SDS011;32853;52.164;5.400;2022-08-18T17:01:11;3.70;;;0.70;;
47103;SDS011;32853;52.164;5.400;2022-08-18T17:03:55;1.67;;;0.50;;
47103;SDS011;32853;52.164;5.400;2022-08-18T17:06:34;1.70;;;0.60;;
47103;SDS011;32853;52.164;5.400;2022-08-18T17:09:00;1.73;;;0.80;;
47103;SDS011;32853;52.164;5.400;2022-08-18T17:11:26;1.75;;;0.60;;
47103;SDS011;32853;52.164;5.400;2022-08-18T17:13:55;2.50;;;0.82;;
47103;SDS011;32853;52.164;5.400;2022-08-18T17:16:23;2.60;;;0.82;;
47103;SDS011;32853;52.164;5.400;2022-08-18T17:18:50;1.65;;;0.60;;
47103;SDS011;32853;52.164;5.400;2022-08-18T17:21:18;2.17;;;0.82;;
47103;SDS011;32853;52.164;5.400;2022-08-18T17:23:47;2.38;;;0.80;;
47103;SDS011;32853;52.164;5.400;2022-08-18T17:29:17;2.78;;;0.75;;
47103;SDS011;32853;52.164;5.400;2022-08-18T17:32:04;2.15;;;0.70;;
47103;SDS011;32853;52.164;5.400;2022-08-18T17:34:33;1.87;;;0.60;;
47103;SDS011;32853;52.164;5.400;2022-08-18T17:37:02;1.88;;;0.65;;
47103;SDS011;32853;52.164;5.400;2022-08-18T17:39:38;1.63;;;0.60;;